Time;durP1;ratioP1;P1;durP2;ratioP2;P2;SDS_P1;SDS_P2;PMS_P1;PMS_P2;Temp;Humidity;BMP_temperature;BMP_pressure;BME280_temperature;BME280_humidity;BME280_pressure;Samples;Min_cycle;Max_cycle;Signal;HPM_P1;HPM_P2
2021/04/30 06:07:10;;;;;;;;;;;7.60;99.90;;;;;;10464068;23;19929;-91
2021/04/30 06:12:12;;;;;;;;;;;7.50;99.90;;;;;;10483330;28;20028;-91
2021/04/30 06:17:14;;;;;;;;;;;7.60;99.90;;;;;;10482195;28;19929;-91
2021/04/30 06:22:18;;;;;;;;;;;7.60;99.90;;;;;;10481411;28;20269;-91
2021/04/30 06:27:20;;;;;;;;;;;8.90;99.90;;;;;;10585547;28;19924;-91
2021/04/30 06:32:21;;;;;;;;;;;8.00;99.90;;;;;;10568372;28;20390;-91
2021/04/30 06:37:25;;;;;;;;;;;7.90;99.90;;;;;;10586899;28;19930;-91
2021/04/30 06:42:28;;;;;;;;;;;7.80;99.90;;;;;;10569267;28;20350;-91
2021/04/30 06:47:30;;;;;;;;;;;8.00;99.90;;;;;;10523752;28;19925;-91
2021/04/30 06:52:31;;;;;;;;;;;9.80;99.90;;;;;;10464459;28;19936;-91
2021/04/30 06:57:32;;;;;;;;;;;8.20;99.90;;;;;;10480901;28;20451;-91
2021/04/30 07:02:37;;;;;;;;;;;9.60;99.90;;;;;;10479236;28;20019;-91
2021/04/30 07:07:40;;;;;;;;;;;8.70;99.90;;;;;;10480575;28;19925;-91
2021/04/30 07:12:41;;;;;;;;;;;8.90;99.90;;;;;;10498090;27;19935;-91
2021/04/30 07:17:42;;;;;;;;;;;9.00;99.90;;;;;;10481010;28;19925;-91
2021/04/30 07:22:44;;;;;;;;;;;9.00;99.90;;;;;;10463378;28;20310;-91
2021/04/30 07:27:45;;;;;;;;;;;8.90;99.90;;;;;;10413084;28;19926;-92
2021/04/30 07:32:46;;;;;;;;;;;9.10;99.90;;;;;;10479982;28;19925;-92
2021/04/30 07:38:11;;;;;;;;;;;9.30;99.90;;;;;;10454873;28;19925;-90
2021/04/30 07:43:13;;;;;;;;;;;9.40;99.90;;;;;;10410775;28;20040;-89
2021/04/30 07:48:14;;;;;;;;;;;9.90;99.90;;;;;;10410669;28;19932;-89
2021/04/30 07:53:15;;;;;;;;;;;9.10;99.90;;;;;;10477997;28;19932;-89
2021/04/30 07:58:19;;;;;;;;;;;9.00;99.90;;;;;;10462092;28;19931;-89
2021/04/30 08:03:21;;;;;;;;;;;9.00;99.90;;;;;;10478185;28;20264;-89
2021/04/30 08:08:23;;;;;;;;;;;9.10;99.90;;;;;;10478920;28;19931;-89
2021/04/30 08:13:24;;;;;;;;;;;9.10;99.90;;;;;;10478509;28;20403;-90
2021/04/30 08:18:25;;;;;;;;;;;9.50;99.90;;;;;;10479345;28;19925;-90
2021/04/30 08:23:27;;;;;;;;;;;9.60;99.90;;;;;;10478986;28;20020;-89
2021/04/30 08:28:28;;;;;;;;;;;10.00;99.90;;;;;;10478594;28;19925;-89
2021/04/30 08:33:29;;;;;;;;;;;10.00;99.90;;;;;;10478858;28;19932;-89
2021/04/30 08:38:30;;;;;;;;;;;10.30;99.90;;;;;;10479243;28;19925;-89
2021/04/30 08:43:32;;;;;;;;;;;10.20;99.90;;;;;;10478295;28;19937;-89
2021/04/30 08:48:33;;;;;;;;;;;10.30;99.90;;;;;;10399912;28;20023;-89
2021/04/30 08:53:34;;;;;;;;;;;10.30;99.90;;;;;;10370513;28;19926;-89
2021/04/30 08:58:37;;;;;;;;;;;10.20;99.90;;;;;;10477034;28;19932;-89
2021/04/30 09:03:39;;;;;;;;;;;10.30;99.90;;;;;;10463439;28;19931;-89
2021/04/30 09:08:48;;;;;;;;;;;10.30;99.90;;;;;;10484001;28;19935;-89
2021/04/30 09:13:50;;;;;;;;;;;;;;;;;;10484704;28;19925;-88
2021/04/30 09:18:51;;;;;;;;;;;11.40;99.90;;;;;;10416770;28;19929;-88
2021/04/30 09:23:54;;;;;;;;;;;;;;;;;;10484357;28;20287;-88
2021/04/30 09:29:08;;;;;;;;;;;10.70;99.90;;;;;;10483867;28;20024;-88
2021/04/30 09:34:26;;;;;;;;;;;10.40;99.90;;;;;;10500681;27;19925;-88
2021/04/30 09:39:28;;;;;;;;;;;10.10;99.90;;;;;;10416722;28;20364;-88
2021/04/30 09:44:33;;;;;;;;;;;10.10;99.90;;;;;;10500810;27;19925;-89
2021/04/30 09:49:35;;;;;;;;;;;10.10;99.90;;;;;;10500272;27;19982;-88
2021/04/30 09:54:38;;;;;;;;;;;10.40;99.90;;;;;;10470979;28;19925;-88
2021/04/30 09:59:41;;;;;;;;;;;10.50;99.90;;;;;;10473066;27;20020;-88
2021/04/30 10:04:43;;;;;;;;;;;9.90;99.90;;;;;;10374026;28;20032;-88
2021/04/30 10:09:44;;;;;;;;;;;9.70;99.90;;;;;;10395506;28;19967;-87
2021/04/30 10:14:46;;;;;;;;;;;10.50;99.90;;;;;;10481428;28;20349;-91
2021/04/30 10:19:48;;;;;;;;;;;10.50;99.90;;;;;;10408584;28;19932;-91
2021/04/30 10:24:54;;;;;;;;;;;10.50;99.90;;;;;;10441149;28;19933;-91
2021/04/30 10:30:11;;;;;;;;;;;10.80;99.90;;;;;;10412851;28;19931;-91
2021/04/30 10:35:13;;;;;;;;;;;11.10;99.90;;;;;;10412381;28;19948;-88
2021/04/30 10:40:16;;;;;;;;;;;11.20;99.90;;;;;;10481423;28;19948;-87
2021/04/30 10:45:18;;;;;;;;;;;10.50;99.90;;;;;;10481314;28;19925;-87
2021/04/30 10:50:20;;;;;;;;;;;11.20;99.90;;;;;;10481246;28;19974;-88
2021/04/30 10:55:21;;;;;;;;;;;11.30;99.90;;;;;;10481156;28;20287;-88
2021/04/30 11:00:45;;;;;;;;;;;11.50;99.90;;;;;;10480749;28;19925;-88
2021/04/30 11:05:51;;;;;;;;;;;11.30;99.90;;;;;;10412837;28;19925;-88
2021/04/30 11:11:02;;;;;;;;;;;11.70;99.90;;;;;;10495669;27;20008;-88
2021/04/30 11:16:03;;;;;;;;;;;11.60;99.90;;;;;;10478859;28;19928;-88
2021/04/30 11:21:05;;;;;;;;;;;11.40;99.90;;;;;;10477396;28;19925;-88
2021/04/30 11:26:07;;;;;;;;;;;11.00;99.90;;;;;;10477276;28;19925;-89
2021/04/30 11:31:09;;;;;;;;;;;10.80;99.90;;;;;;10495159;27;19925;-89
2021/04/30 11:36:12;;;;;;;;;;;11.00;99.90;;;;;;10477618;28;19947;-89
2021/04/30 11:41:19;;;;;;;;;;;11.00;99.90;;;;;;10473662;28;19957;-89
2021/04/30 11:46:22;;;;;;;;;;;11.00;99.90;;;;;;10475904;27;19929;-88
2021/04/30 11:51:23;;;;;;;;;;;11.70;99.90;;;;;;10483794;27;19932;-89
2021/04/30 11:56:34;;;;;;;;;;;11.60;99.90;;;;;;10421183;28;19932;-89
2021/04/30 12:01:35;;;;;;;;;;;;;;;;;;10613690;27;20026;-89
2021/04/30 12:06:37;;;;;;;;;;;13.50;99.90;;;;;;10608363;27;19929;-89
2021/04/30 12:11:38;;;;;;;;;;;13.80;99.90;;;;;;10461396;28;20303;-89
2021/04/30 12:16:39;;;;;;;;;;;14.00;99.90;;;;;;10478341;28;20287;-90
2021/04/30 12:21:40;;;;;;;;;;;13.90;99.90;;;;;;10463681;23;19925;-93
2021/04/30 12:26:42;;;;;;;;;;;14.80;99.90;;;;;;10506064;28;19923;-93
2021/04/30 12:31:46;;;;;;;;;;;14.20;99.90;;;;;;10565946;28;20015;-94
2021/04/30 12:36:47;;;;;;;;;;;13.70;99.90;;;;;;10583139;28;19924;-94
2021/04/30 12:41:49;;;;;;;;;;;13.50;99.90;;;;;;10574630;28;19924;-93
2021/04/30 12:46:51;;;;;;;;;;;13.10;99.90;;;;;;10466604;28;20027;-93
2021/04/30 12:51:55;;;;;;;;;;;12.70;99.90;;;;;;10377755;28;19930;-93
2021/04/30 12:56:56;;;;;;;;;;;12.80;99.90;;;;;;10376014;28;19970;-93
2021/04/30 13:02:16;;;;;;;;;;;12.80;99.90;;;;;;10359020;28;19925;-93
2021/04/30 13:07:18;;;;;;;;;;;12.90;99.90;;;;;;10341896;28;20406;-93
2021/04/30 13:12:19;;;;;;;;;;;12.80;99.90;;;;;;10376290;28;20004;-93
2021/04/30 13:17:28;;;;;;;;;;;12.40;99.90;;;;;;10357848;28;19925;-94
2021/04/30 13:22:29;;;;;;;;;;;12.70;99.90;;;;;;10373466;28;19929;-93
2021/04/30 13:27:45;;;;;;;;;;;12.80;99.90;;;;;;10356940;28;19926;-92
2021/04/30 13:33:13;;;;;;;;;;;13.00;99.90;;;;;;10374260;28;20014;-93
2021/04/30 13:38:18;;;;;;;;;;;12.90;99.90;;;;;;10344565;28;20372;-92
2021/04/30 13:43:30;;;;;;;;;;;13.20;99.90;;;;;;10316756;28;19991;-93
2021/04/30 13:48:35;;;;;;;;;;;12.40;99.90;;;;;;10347096;28;19925;-93
2021/04/30 13:53:37;;;;;;;;;;;12.20;99.90;;;;;;10372515;28;20360;-92
2021/04/30 13:58:48;;;;;;;;;;;12.00;99.90;;;;;;10373449;28;19948;-92
2021/04/30 14:03:49;;;;;;;;;;;11.60;99.90;;;;;;10518784;28;19924;-91
2021/04/30 14:08:50;;;;;;;;;;;11.40;99.90;;;;;;10570575;28;20031;-90
2021/04/30 14:13:52;;;;;;;;;;;11.30;99.90;;;;;;10588209;28;19950;-92
2021/04/30 14:18:54;;;;;;;;;;;10.70;99.90;;;;;;10587611;28;19968;-92
2021/04/30 14:23:58;;;;;;;;;;;10.50;99.90;;;;;;10569604;28;19959;-91
2021/04/30 14:28:59;;;;;;;;;;;10.50;99.90;;;;;;10585808;28;20285;-92
2021/04/30 14:34:00;;;;;;;;;;;10.50;99.90;;;;;;10586225;28;19923;-92
2021/04/30 14:39:02;;;;;;;;;;;10.60;99.90;;;;;;10585970;28;19924;-92
2021/04/30 14:44:04;;;;;;;;;;;10.20;99.90;;;;;;10586853;28;19924;-93
2021/04/30 14:49:05;;;;;;;;;;;10.40;99.90;;;;;;10586336;28;19930;-93
2021/04/30 14:54:06;;;;;;;;;;;10.70;99.90;;;;;;10585613;28;20011;-92
2021/04/30 14:59:07;;;;;;;;;;;11.10;99.90;;;;;;10569086;28;19924;-92
2021/04/30 15:04:09;;;;;;;;;;;11.40;99.90;;;;;;10568807;28;19923;-92
2021/04/30 15:09:11;;;;;;;;;;;11.60;99.90;;;;;;10568049;28;19923;-91
2021/04/30 15:14:14;;;;;;;;;;;11.30;99.90;;;;;;10586019;28;19927;-92
2021/04/30 15:19:16;;;;;;;;;;;11.20;99.90;;;;;;10374036;28;19932;-92
2021/04/30 15:24:17;;;;;;;;;;;11.10;99.90;;;;;;10356966;28;19929;-91
2021/04/30 15:29:18;;;;;;;;;;;11.00;99.90;;;;;;10339092;28;19926;-92
2021/04/30 15:34:19;;;;;;;;;;;11.40;99.90;;;;;;10339093;28;19926;-91
2021/04/30 15:39:25;;;;;;;;;;;10.60;99.90;;;;;;10371744;28;19991;-93
2021/04/30 15:44:28;;;;;;;;;;;11.10;99.90;;;;;;10354135;28;19961;-94
2021/04/30 15:49:30;;;;;;;;;;;10.80;99.90;;;;;;10354807;28;19929;-94
2021/04/30 15:54:31;;;;;;;;;;;10.90;99.90;;;;;;10370824;28;20020;-93
2021/04/30 15:59:33;;;;;;;;;;;10.80;99.90;;;;;;10370180;28;20383;-93
2021/04/30 16:04:34;;;;;;;;;;;10.80;99.90;;;;;;10353882;28;19925;-93
2021/04/30 16:09:38;;;;;;;;;;;10.50;99.90;;;;;;10371607;28;19925;-93
2021/04/30 16:14:39;;;;;;;;;;;10.50;99.90;;;;;;10356320;28;19925;-92
2021/04/30 16:19:41;;;;;;;;;;;10.40;99.90;;;;;;10353619;28;19925;-94
2021/04/30 16:24:42;;;;;;;;;;;10.30;99.90;;;;;;10370909;28;19937;-94
2021/04/30 16:29:43;;;;;;;;;;;10.00;99.90;;;;;;10353459;28;20368;-94
2021/04/30 16:34:45;;;;;;;;;;;9.90;99.90;;;;;;10370313;28;20024;-94
2021/04/30 16:39:46;;;;;;;;;;;;;;;;;;10353641;28;20012;-93
2021/04/30 16:44:48;;;;;;;;;;;;;;;;;;10354374;28;19926;-93
2021/04/30 16:49:49;;;;;;;;;;;9.20;99.90;;;;;;10353631;28;20331;-93
2021/04/30 16:54:51;;;;;;;;;;;9.50;99.90;;;;;;10353216;28;19925;-93
2021/04/30 16:59:52;;;;;;;;;;;9.10;99.90;;;;;;10353155;28;19930;-91
2021/04/30 17:04:53;;;;;;;;;;;9.10;99.90;;;;;;10352382;28;19926;-92
2021/04/30 17:09:55;;;;;;;;;;;9.10;99.90;;;;;;10369127;28;19926;-92
2021/04/30 17:14:57;;;;;;;;;;;9.10;99.90;;;;;;10368177;28;19926;-93
2021/04/30 17:19:58;;;;;;;;;;;9.10;99.90;;;;;;10352077;28;19933;-92
2021/04/30 17:25:00;;;;;;;;;;;9.00;99.90;;;;;;10370625;28;19979;-92
2021/04/30 17:30:03;;;;;;;;;;;8.80;99.90;;;;;;10375064;28;19933;-92
2021/04/30 17:35:05;;;;;;;;;;;8.90;99.90;;;;;;10359246;28;20370;-92
2021/04/30 17:40:07;;;;;;;;;;;8.80;99.90;;;;;;10359263;28;19926;-92
2021/04/30 17:45:09;;;;;;;;;;;8.70;99.90;;;;;;10374367;28;20399;-92
2021/04/30 17:50:11;;;;;;;;;;;9.10;99.90;;;;;;10357906;28;20311;-93
2021/04/30 17:55:23;;;;;;;;;;;8.70;99.90;;;;;;10374626;28;19974;-93
2021/04/30 18:00:27;;;;;;;;;;;8.90;99.90;;;;;;10374988;28;19925;-92
2021/04/30 18:05:31;;;;;;;;;;;8.80;99.90;;;;;;10374235;28;20012;-91
2021/04/30 18:10:32;;;;;;;;;;;8.50;99.90;;;;;;10375759;28;20390;-93
2021/04/30 18:15:34;;;;;;;;;;;9.00;99.90;;;;;;10373969;28;19965;-93
2021/04/30 18:20:37;;;;;;;;;;;;;;;;;;10380051;22;19926;-91
2021/04/30 18:25:38;;;;;;;;;;;;;;;;;;10458928;28;19932;-91
2021/04/30 18:30:40;;;;;;;;;;;;;;;;;;10457696;28;19925;-91
2021/04/30 18:35:41;;;;;;;;;;;;;;;;;;10373496;28;19925;-92
2021/04/30 18:40:43;;;;;;;;;;;;;;;;;;10440799;28;19936;-92
2021/04/30 18:45:45;;;;;;;;;;;;;;;;;;10440564;28;20380;-91
2021/04/30 18:50:47;;;;;;;;;;;;;;;;;;10373221;28;19979;-91
2021/04/30 18:55:49;;;;;;;;;;;;;;;;;;10457778;28;19930;-91
2021/04/30 19:00:51;;;;;;;;;;;;;;;;;;10456517;28;19933;-91
2021/04/30 19:05:53;;;;;;;;;;;;;;;;;;10372079;28;19925;-91
2021/04/30 19:10:54;;;;;;;;;;;;;;;;;;10404047;28;19926;-92
2021/04/30 19:15:56;;;;;;;;;;;;;;;;;;10455880;28;20372;-91
2021/04/30 19:20:58;;;;;;;;;;;;;;;;;;10456510;28;19932;-92
2021/04/30 19:26:00;;;;;;;;;;;;;;;;;;10456797;28;19936;-90
2021/04/30 19:31:02;;;;;;;;;;;;;;;;;;10477866;28;19925;-91
2021/04/30 19:36:05;;;;;;;;;;;;;;;;;;10480956;28;20028;-91
2021/04/30 19:41:06;;;;;;;;;;;;;;;;;;10480034;28;19925;-91
2021/04/30 19:46:08;;;;;;;;;;;;;;;;;;10479301;28;19931;-91
2021/04/30 19:51:11;;;;;;;;;;;;;;;;;;10479116;28;19925;-91
2021/04/30 19:56:12;;;;;;;;;;;;;;;;;;10480053;28;20372;-91
2021/04/30 20:01:14;;;;;;;;;;;;;;;;;;10411567;28;19934;-90
2021/04/30 20:06:16;;;;;;;;;;;;;;;;;;10412104;28;19925;-91
2021/04/30 20:11:18;;;;;;;;;;;;;;;;;;10463743;28;20276;-91
2021/04/30 20:16:19;;;;;;;;;;;;;;;;;;10455501;28;19979;-91
2021/04/30 20:21:21;;;;;;;;;;;;;;;;;;10454246;28;20386;-90
2021/04/30 20:26:23;;;;;;;;;;;;;;;;;;10370214;28;19978;-91
2021/04/30 20:31:25;;;;;;;;;;;;;;;;;;10455059;28;19925;-91
2021/04/30 20:36:27;;;;;;;;;;;;;;;;;;10454322;28;19932;-91
2021/04/30 20:41:28;;;;;;;;;;;7.90;99.90;;;;;;10453918;28;20291;-91
2021/04/30 20:46:29;;;;;;;;;;;7.80;99.90;;;;;;10436315;28;20009;-91
2021/04/30 20:51:34;;;;;;;;;;;7.80;99.90;;;;;;10434863;28;19965;-91
2021/04/30 20:56:35;;;;;;;;;;;7.70;99.90;;;;;;10437163;28;19926;-91
2021/04/30 21:01:36;;;;;;;;;;;9.60;99.90;;;;;;10374937;28;19932;-90
2021/04/30 21:06:39;;;;;;;;;;;7.80;99.90;;;;;;10459453;28;20294;-90
2021/04/30 21:11:45;;;;;;;;;;;9.40;99.90;;;;;;10461183;28;19933;-90
2021/04/30 21:16:47;;;;;;;;;;;7.70;99.90;;;;;;10444627;28;19926;-91
2021/04/30 21:21:48;;;;;;;;;;;7.60;99.90;;;;;;10459868;28;19948;-90
2021/04/30 21:26:50;;;;;;;;;;;8.20;99.90;;;;;;10460590;28;20291;-91
2021/04/30 21:31:52;;;;;;;;;;;7.40;99.90;;;;;;10459605;28;20410;-90
2021/04/30 21:36:53;;;;;;;;;;;8.30;99.90;;;;;;10459397;28;19936;-90
2021/04/30 21:41:54;;;;;;;;;;;7.70;99.90;;;;;;10458535;28;19925;-90
2021/04/30 21:46:56;;;;;;;;;;;7.50;99.90;;;;;;10459813;28;20012;-91
2021/04/30 21:51:57;;;;;;;;;;;7.70;99.90;;;;;;10459525;28;19936;-91
2021/04/30 21:56:58;;;;;;;;;;;7.70;99.90;;;;;;10374284;28;20376;-91
2021/04/30 22:01:59;;;;;;;;;;;7.70;99.90;;;;;;10458592;28;19926;-91
2021/04/30 22:07:01;;;;;;;;;;;8.00;99.90;;;;;;10459093;28;19930;-91
2021/04/30 22:12:09;;;;;;;;;;;8.10;99.90;;;;;;10457195;28;20386;-91
2021/04/30 22:17:11;;;;;;;;;;;7.80;99.90;;;;;;10458363;28;19932;-91
2021/04/30 22:22:14;;;;;;;;;;;7.80;99.90;;;;;;10455726;28;20484;-90
2021/04/30 22:27:15;;;;;;;;;;;7.90;99.90;;;;;;10457569;28;19925;-90
2021/04/30 22:32:18;;;;;;;;;;;7.80;99.90;;;;;;10455180;28;20452;-90
2021/04/30 22:37:20;;;;;;;;;;;7.70;99.90;;;;;;10456088;28;19932;-90
2021/04/30 22:42:21;;;;;;;;;;;7.70;99.90;;;;;;10455483;28;19930;-91
2021/04/30 22:47:23;;;;;;;;;;;7.50;99.90;;;;;;10438801;28;19948;-90
2021/04/30 22:52:24;;;;;;;;;;;7.50;99.90;;;;;;10455858;28;20395;-90
2021/04/30 22:57:26;;;;;;;;;;;7.40;99.90;;;;;;10455556;28;19931;-91
2021/04/30 23:02:27;;;;;;;;;;;7.30;99.90;;;;;;10454899;28;20035;-90
2021/04/30 23:07:29;;;;;;;;;;;7.30;99.90;;;;;;10369793;28;19926;-90
2021/04/30 23:12:30;;;;;;;;;;;7.30;99.90;;;;;;10438860;28;20303;-90
2021/04/30 23:17:32;;;;;;;;;;;7.60;99.90;;;;;;10456556;28;19925;-91
2021/04/30 23:22:33;;;;;;;;;;;8.70;99.90;;;;;;10456115;28;19929;-91
2021/04/30 23:27:34;;;;;;;;;;;5.20;99.90;;;;;;10456672;28;19925;-90
2021/04/30 23:32:36;;;;;;;;;;;7.10;99.90;;;;;;10456615;28;19947;-89
2021/04/30 23:37:38;;;;;;;;;;;7.30;99.90;;;;;;10454246;28;19940;-90
2021/04/30 23:42:39;;;;;;;;;;;7.30;99.90;;;;;;10435930;28;19926;-90
2021/04/30 23:47:40;;;;;;;;;;;7.10;99.90;;;;;;10438081;28;19926;-90
2021/04/30 23:52:42;;;;;;;;;;;7.00;99.90;;;;;;10452586;28;20026;-90
2021/04/30 23:57:43;;;;;;;;;;;8.50;99.90;;;;;;10438968;28;19929;-90
